Terminal Aerodrome Forecast
Issued by NWS

Home | Current Version | Previous Version | Text Only | Print | Product List | Glossary On
Versions: 1 2 3 4 5 6 7 8 9 10 11 12 13 14 15 16
846
FTUS45 KRIW 281127
TAFBPI
TAF
KBPI 281127Z 2812/2912 VRB05KT P6SM SCT080
     FM282000 28011KT P6SM SCT070 SCT100
     FM290100 33008KT P6SM SCT090
     FM290600 VRB05KT P6SM FEW090=

USA.gov is the U.S. government's official web portal to all federal, state and local government web resources and services.